Breighton, United Kingdom
Current Conditions -  °F | °C
As of 12:50 PM on Sunday 21 Dec 2014 (Local Time) from EGXV Reporting Station
Scattered Clouds Scattered Clouds  
Wind Chill: 50°   Ceiling: Unl
Heat Index: 50°   Visibility: 6mi
Dew Point: 43°   Wind: 14mph
Humidity: 76%   Direction: 240°WSW
Pressure: 30.03"   Gusts: 26mph
Location:  53.8°N, 0.92°W
Report Text: EGXV 211250Z AUTO 24012G23KT 9999 FEW045/// SCT060/// 10/06 Q1017
Loading
Personal Weather Stations






























Interactive Weather Map New forecast layout! Learn more

10-Day Weather Forecast

Advertisements
Track Severe Weather on mobile